sensor_id;sensor_type;location;lat;lon;timestamp;pressure;altitude;pressure_sealevel;temperature;humidity
63339;BME280;70568;51.378;-1.342;2024-03-17T00:01:13;100324.82;;;7.55;41.33
63339;BME280;70568;51.378;-1.342;2024-03-17T00:03:40;100321.14;;;8.69;39.91
63339;BME280;70568;51.378;-1.342;2024-03-17T00:06:06;100314.34;;;8.99;38.14
63339;BME280;70568;51.378;-1.342;2024-03-17T00:08:33;100321.42;;;5.08;42.26
63339;BME280;70568;51.378;-1.342;2024-03-17T00:11:00;100316.93;;;6.96;39.22
63339;BME280;70568;51.378;-1.342;2024-03-17T00:13:27;100315.23;;;7.32;39.49
63339;BME280;70568;51.378;-1.342;2024-03-17T00:15:53;100311.87;;;9.45;38.55
63339;BME280;70568;51.378;-1.342;2024-03-17T00:18:20;100306.80;;;9.69;37.11
63339;BME280;70568;51.378;-1.342;2024-03-17T00:20:46;100305.35;;;8.63;37.51
63339;BME280;70568;51.378;-1.342;2024-03-17T00:23:13;100309.77;;;7.42;39.48
63339;BME280;70568;51.378;-1.342;2024-03-17T00:25:40;100308.87;;;7.07;39.65
63339;BME280;70568;51.378;-1.342;2024-03-17T00:28:07;100301.23;;;7.73;38.65
63339;BME280;70568;51.378;-1.342;2024-03-17T00:30:34;100303.67;;;7.35;39.27
63339;BME280;70568;51.378;-1.342;2024-03-17T00:33:01;100299.60;;;10.34;36.87
63339;BME280;70568;51.378;-1.342;2024-03-17T00:35:29;100295.70;;;10.21;37.76
63339;BME280;70568;51.378;-1.342;2024-03-17T00:37:56;100294.89;;;8.84;37.47
63339;BME280;70568;51.378;-1.342;2024-03-17T00:40:23;100287.81;;;8.26;38.05
63339;BME280;70568;51.378;-1.342;2024-03-17T00:42:51;100284.37;;;7.60;37.76
63339;BME280;70568;51.378;-1.342;2024-03-17T00:45:20;100286.42;;;10.13;36.10
63339;BME280;70568;51.378;-1.342;2024-03-17T00:47:50;100278.88;;;8.51;38.89
63339;BME280;70568;51.378;-1.342;2024-03-17T00:50:23;100276.14;;;9.09;38.34
63339;BME280;70568;51.378;-1.342;2024-03-17T00:52:52;100275.10;;;8.37;37.98
63339;BME280;70568;51.378;-1.342;2024-03-17T00:55:19;100271.97;;;8.96;37.74
63339;BME280;70568;51.378;-1.342;2024-03-17T00:57:46;100269.65;;;8.90;37.21
63339;BME280;70568;51.378;-1.342;2024-03-17T01:00:14;100271.87;;;6.80;40.87
63339;BME280;70568;51.378;-1.342;2024-03-17T01:02:42;100268.71;;;10.18;37.11
63339;BME280;70568;51.378;-1.342;2024-03-17T01:05:11;100267.70;;;7.65;38.76
63339;BME280;70568;51.378;-1.342;2024-03-17T01:07:38;100262.78;;;9.38;37.42
63339;BME280;70568;51.378;-1.342;2024-03-17T01:10:06;100260.59;;;8.98;37.31
63339;BME280;70568;51.378;-1.342;2024-03-17T01:12:32;100257.28;;;9.67;37.72
63339;BME280;70568;51.378;-1.342;2024-03-17T01:14:59;100254.23;;;9.36;38.43
63339;BME280;70568;51.378;-1.342;2024-03-17T01:17:27;100254.52;;;8.17;39.58
63339;BME280;70568;51.378;-1.342;2024-03-17T01:19:53;100257.60;;;6.51;40.17
63339;BME280;70568;51.378;-1.342;2024-03-17T01:22:20;100255.23;;;8.78;39.27
63339;BME280;70568;51.378;-1.342;2024-03-17T01:24:47;100252.09;;;8.93;39.18
63339;BME280;70568;51.378;-1.342;2024-03-17T01:27:13;100249.18;;;8.96;39.55
63339;BME280;70568;51.378;-1.342;2024-03-17T01:29:40;100243.54;;;9.58;38.40
63339;BME280;70568;51.378;-1.342;2024-03-17T01:32:07;100243.65;;;10.52;39.46
63339;BME280;70568;51.378;-1.342;2024-03-17T01:34:34;100239.76;;;9.12;38.99
63339;BME280;70568;51.378;-1.342;2024-03-17T01:37:00;100236.54;;;5.98;41.01
63339;BME280;70568;51.378;-1.342;2024-03-17T01:39:27;100234.82;;;9.84;38.27
63339;BME280;70568;51.378;-1.342;2024-03-17T01:41:54;100232.84;;;8.88;38.54
63339;BME280;70568;51.378;-1.342;2024-03-17T01:44:23;100233.81;;;7.98;39.97
63339;BME280;70568;51.378;-1.342;2024-03-17T01:46:50;100231.48;;;10.17;39.37
63339;BME280;70568;51.378;-1.342;2024-03-17T01:49:17;100227.39;;;8.78;39.47
63339;BME280;70568;51.378;-1.342;2024-03-17T01:51:45;100218.26;;;9.32;37.92
63339;BME280;70568;51.378;-1.342;2024-03-17T01:54:15;100221.62;;;10.32;37.60
63339;BME280;70568;51.378;-1.342;2024-03-17T01:56:42;100213.65;;;8.68;38.87
63339;BME280;70568;51.378;-1.342;2024-03-17T01:59:09;100210.18;;;9.11;37.88
63339;BME280;70568;51.378;-1.342;2024-03-17T02:01:37;100207.96;;;10.09;37.58
63339;BME280;70568;51.378;-1.342;2024-03-17T02:04:04;100200.99;;;8.97;36.91
63339;BME280;70568;51.378;-1.342;2024-03-17T02:06:32;100200.69;;;7.93;39.11
63339;BME280;70568;51.378;-1.342;2024-03-17T02:08:59;100197.52;;;9.56;38.50
63339;BME280;70568;51.378;-1.342;2024-03-17T02:11:27;100191.00;;;9.77;38.13
63339;BME280;70568;51.378;-1.342;2024-03-17T02:13:54;100193.48;;;7.65;40.92
63339;BME280;70568;51.378;-1.342;2024-03-17T02:16:22;100190.04;;;8.87;38.81
63339;BME280;70568;51.378;-1.342;2024-03-17T02:18:49;100191.19;;;8.34;40.58
63339;BME280;70568;51.378;-1.342;2024-03-17T02:21:16;100186.93;;;9.73;38.96
63339;BME280;70568;51.378;-1.342;2024-03-17T02:23:43;100183.46;;;8.83;39.23
63339;BME280;70568;51.378;-1.342;2024-03-17T02:26:10;100176.76;;;7.44;39.53
63339;BME280;70568;51.378;-1.342;2024-03-17T02:28:39;100174.87;;;8.68;38.94
63339;BME280;70568;51.378;-1.342;2024-03-17T02:31:08;100173.63;;;9.62;37.92
63339;BME280;70568;51.378;-1.342;2024-03-17T02:33:36;100170.27;;;9.65;37.69
63339;BME280;70568;51.378;-1.342;2024-03-17T02:36:03;100165.74;;;8.57;37.90
63339;BME280;70568;51.378;-1.342;2024-03-17T02:38:30;100165.70;;;8.96;37.89
63339;BME280;70568;51.378;-1.342;2024-03-17T02:40:57;100159.51;;;8.32;38.57
63339;BME280;70568;51.378;-1.342;2024-03-17T02:43:25;100155.49;;;10.54;36.77
63339;BME280;70568;51.378;-1.342;2024-03-17T02:45:52;100155.14;;;10.23;37.00
63339;BME280;70568;51.378;-1.342;2024-03-17T02:48:19;100151.47;;;10.79;36.89
63339;BME280;70568;51.378;-1.342;2024-03-17T02:50:46;100151.03;;;10.00;37.85
63339;BME280;70568;51.378;-1.342;2024-03-17T02:53:14;100151.20;;;7.94;38.82
63339;BME280;70568;51.378;-1.342;2024-03-17T02:55:40;100142.19;;;9.88;37.30
63339;BME280;70568;51.378;-1.342;2024-03-17T02:58:07;100144.76;;;8.99;39.35
63339;BME280;70568;51.378;-1.342;2024-03-17T03:00:34;100148.46;;;9.60;37.24
63339;BME280;70568;51.378;-1.342;2024-03-17T03:03:01;100145.78;;;9.57;38.30
63339;BME280;70568;51.378;-1.342;2024-03-17T03:05:28;100136.31;;;9.87;38.21
63339;BME280;70568;51.378;-1.342;2024-03-17T03:07:54;100132.88;;;9.85;37.96
63339;BME280;70568;51.378;-1.342;2024-03-17T03:10:22;100129.43;;;10.32;36.84
63339;BME280;70568;51.378;-1.342;2024-03-17T03:12:49;100132.95;;;10.06;37.00
63339;BME280;70568;51.378;-1.342;2024-03-17T03:15:17;100128.05;;;9.69;37.89
63339;BME280;70568;51.378;-1.342;2024-03-17T03:17:44;100119.77;;;9.35;37.93
63339;BME280;70568;51.378;-1.342;2024-03-17T03:20:12;100120.98;;;9.55;37.54
63339;BME280;70568;51.378;-1.342;2024-03-17T03:22:39;100115.67;;;9.55;38.41
63339;BME280;70568;51.378;-1.342;2024-03-17T03:25:06;100110.31;;;9.84;38.31
63339;BME280;70568;51.378;-1.342;2024-03-17T03:27:33;100106.13;;;10.40;37.33
63339;BME280;70568;51.378;-1.342;2024-03-17T03:30:00;100106.30;;;9.42;37.75
63339;BME280;70568;51.378;-1.342;2024-03-17T03:32:26;100101.88;;;9.55;39.36
63339;BME280;70568;51.378;-1.342;2024-03-17T03:34:53;100105.69;;;7.66;40.37
63339;BME280;70568;51.378;-1.342;2024-03-17T03:37:20;100104.02;;;6.48;41.22
63339;BME280;70568;51.378;-1.342;2024-03-17T03:39:46;100102.80;;;7.45;40.11
63339;BME280;70568;51.378;-1.342;2024-03-17T03:42:14;100105.62;;;8.45;38.69
63339;BME280;70568;51.378;-1.342;2024-03-17T03:44:41;100104.10;;;7.82;38.40
63339;BME280;70568;51.378;-1.342;2024-03-17T03:47:07;100100.40;;;9.61;37.27
63339;BME280;70568;51.378;-1.342;2024-03-17T03:49:34;100096.71;;;7.50;38.19
63339;BME280;70568;51.378;-1.342;2024-03-17T03:52:01;100092.17;;;8.65;38.44
63339;BME280;70568;51.378;-1.342;2024-03-17T03:54:27;100089.12;;;7.89;38.06
63339;BME280;70568;51.378;-1.342;2024-03-17T03:56:54;100085.25;;;8.77;37.78
63339;BME280;70568;51.378;-1.342;2024-03-17T03:59:21;100081.71;;;8.65;38.93
63339;BME280;70568;51.378;-1.342;2024-03-17T04:01:49;100080.17;;;9.56;37.50
63339;BME280;70568;51.378;-1.342;2024-03-17T04:04:15;100075.48;;;8.46;38.03
63339;BME280;70568;51.378;-1.342;2024-03-17T04:06:43;100067.37;;;10.19;36.26
63339;BME280;70568;51.378;-1.342;2024-03-17T04:09:11;100072.04;;;6.91;39.45
63339;BME280;70568;51.378;-1.342;2024-03-17T04:11:37;100071.37;;;8.13;38.34
63339;BME280;70568;51.378;-1.342;2024-03-17T04:14:04;100075.02;;;8.56;37.81
63339;BME280;70568;51.378;-1.342;2024-03-17T04:16:31;100069.55;;;9.21;37.53
63339;BME280;70568;51.378;-1.342;2024-03-17T04:18:58;100053.21;;;8.97;37.65
63339;BME280;70568;51.378;-1.342;2024-03-17T04:21:25;100054.67;;;9.01;37.47
63339;BME280;70568;51.378;-1.342;2024-03-17T04:23:51;100058.24;;;9.00;36.82
63339;BME280;70568;51.378;-1.342;2024-03-17T04:26:18;100062.78;;;9.45;36.31
63339;BME280;70568;51.378;-1.342;2024-03-17T04:28:45;100056.85;;;10.16;36.19
63339;BME280;70568;51.378;-1.342;2024-03-17T04:31:12;100057.65;;;10.01;36.53
63339;BME280;70568;51.378;-1.342;2024-03-17T04:33:40;100053.53;;;9.09;36.34
63339;BME280;70568;51.378;-1.342;2024-03-17T04:36:07;100052.99;;;9.38;35.58
63339;BME280;70568;51.378;-1.342;2024-03-17T04:38:34;100052.47;;;8.98;36.86
63339;BME280;70568;51.378;-1.342;2024-03-17T04:41:01;100054.62;;;10.14;36.21
63339;BME280;70568;51.378;-1.342;2024-03-17T04:43:28;100051.72;;;11.42;34.48
63339;BME280;70568;51.378;-1.342;2024-03-17T04:46:00;100047.52;;;9.73;35.59
63339;BME280;70568;51.378;-1.342;2024-03-17T04:48:26;100047.09;;;7.73;35.82
63339;BME280;70568;51.378;-1.342;2024-03-17T04:50:53;100043.77;;;9.14;35.90
63339;BME280;70568;51.378;-1.342;2024-03-17T04:53:20;100042.52;;;9.98;35.63
63339;BME280;70568;51.378;-1.342;2024-03-17T04:55:47;100042.19;;;8.75;37.02
63339;BME280;70568;51.378;-1.342;2024-03-17T04:58:14;100046.78;;;9.68;36.63
63339;BME280;70568;51.378;-1.342;2024-03-17T05:00:41;100046.55;;;8.21;38.02
63339;BME280;70568;51.378;-1.342;2024-03-17T05:03:07;100043.63;;;10.62;36.83
63339;BME280;70568;51.378;-1.342;2024-03-17T05:05:35;100042.65;;;7.87;38.43
63339;BME280;70568;51.378;-1.342;2024-03-17T05:08:02;100040.81;;;7.30;39.24
63339;BME280;70568;51.378;-1.342;2024-03-17T05:10:29;100036.27;;;8.62;37.61
63339;BME280;70568;51.378;-1.342;2024-03-17T05:12:55;100036.53;;;10.01;37.06
63339;BME280;70568;51.378;-1.342;2024-03-17T05:15:22;100035.02;;;9.45;37.36
63339;BME280;70568;51.378;-1.342;2024-03-17T05:17:49;100035.09;;;8.11;38.27
63339;BME280;70568;51.378;-1.342;2024-03-17T05:20:16;100033.07;;;10.31;36.17
63339;BME280;70568;51.378;-1.342;2024-03-17T05:22:42;100035.57;;;10.19;36.81
63339;BME280;70568;51.378;-1.342;2024-03-17T05:25:09;100033.85;;;9.18;37.33
63339;BME280;70568;51.378;-1.342;2024-03-17T05:27:36;100031.95;;;9.12;37.53
63339;BME280;70568;51.378;-1.342;2024-03-17T05:30:03;100033.19;;;8.58;36.46
63339;BME280;70568;51.378;-1.342;2024-03-17T05:32:30;100029.87;;;8.28;38.38
63339;BME280;70568;51.378;-1.342;2024-03-17T05:34:56;100029.07;;;8.78;38.29
63339;BME280;70568;51.378;-1.342;2024-03-17T05:37:23;100029.75;;;6.85;39.84
63339;BME280;70568;51.378;-1.342;2024-03-17T05:39:50;100023.27;;;9.62;38.65
63339;BME280;70568;51.378;-1.342;2024-03-17T05:42:17;100027.16;;;5.66;41.41
63339;BME280;70568;51.378;-1.342;2024-03-17T05:44:44;100022.22;;;8.50;39.72
63339;BME280;70568;51.378;-1.342;2024-03-17T05:47:11;100020.93;;;8.04;39.70
63339;BME280;70568;51.378;-1.342;2024-03-17T05:49:38;100016.40;;;8.89;39.12
63339;BME280;70568;51.378;-1.342;2024-03-17T05:52:05;100021.00;;;5.87;43.27
63339;BME280;70568;51.378;-1.342;2024-03-17T05:54:33;100017.02;;;7.94;41.45
63339;BME280;70568;51.378;-1.342;2024-03-17T05:57:00;100014.13;;;7.93;41.37
63339;BME280;70568;51.378;-1.342;2024-03-17T05:59:26;100012.72;;;6.86;41.97
63339;BME280;70568;51.378;-1.342;2024-03-17T06:01:54;100007.51;;;7.93;40.33
63339;BME280;70568;51.378;-1.342;2024-03-17T06:04:20;100013.61;;;5.70;42.30
63339;BME280;70568;51.378;-1.342;2024-03-17T06:06:47;100009.47;;;6.54;40.81
63339;BME280;70568;51.378;-1.342;2024-03-17T06:09:14;100011.49;;;6.29;42.51
63339;BME280;70568;51.378;-1.342;2024-03-17T06:11:40;100007.99;;;6.72;41.69
63339;BME280;70568;51.378;-1.342;2024-03-17T06:14:07;100008.49;;;9.50;39.43
63339;BME280;70568;51.378;-1.342;2024-03-17T06:16:34;100007.77;;;7.90;39.57
63339;BME280;70568;51.378;-1.342;2024-03-17T06:19:01;100003.73;;;8.65;39.38
63339;BME280;70568;51.378;-1.342;2024-03-17T06:21:28;100006.56;;;8.17;42.09
63339;BME280;70568;51.378;-1.342;2024-03-17T06:23:55;100002.05;;;6.91;41.34
63339;BME280;70568;51.378;-1.342;2024-03-17T06:26:21;100000.59;;;8.17;40.36
63339;BME280;70568;51.378;-1.342;2024-03-17T06:28:48;99994.89;;;8.41;39.75
63339;BME280;70568;51.378;-1.342;2024-03-17T06:31:14;99992.80;;;6.95;39.79
63339;BME280;70568;51.378;-1.342;2024-03-17T06:33:41;99990.63;;;8.32;40.10
63339;BME280;70568;51.378;-1.342;2024-03-17T06:36:08;99990.54;;;8.27;40.16
63339;BME280;70568;51.378;-1.342;2024-03-17T06:38:35;99989.21;;;6.67;41.76
63339;BME280;70568;51.378;-1.342;2024-03-17T06:41:01;99983.46;;;7.10;41.32
63339;BME280;70568;51.378;-1.342;2024-03-17T06:43:28;99981.75;;;9.30;41.04
63339;BME280;70568;51.378;-1.342;2024-03-17T06:45:56;99981.76;;;8.51;40.93
63339;BME280;70568;51.378;-1.342;2024-03-17T06:48:24;99978.34;;;8.86;40.64
63339;BME280;70568;51.378;-1.342;2024-03-17T06:50:51;99985.28;;;8.24;41.83
63339;BME280;70568;51.378;-1.342;2024-03-17T06:53:18;99982.76;;;6.40;43.44
63339;BME280;70568;51.378;-1.342;2024-03-17T06:55:52;99977.52;;;6.25;44.15
63339;BME280;70568;51.378;-1.342;2024-03-17T06:58:19;99978.58;;;6.10;44.04
63339;BME280;70568;51.378;-1.342;2024-03-17T07:00:52;99977.64;;;8.13;43.42
63339;BME280;70568;51.378;-1.342;2024-03-17T07:03:19;99984.40;;;4.45;47.35
63339;BME280;70568;51.378;-1.342;2024-03-17T07:05:51;99976.31;;;7.92;42.75
63339;BME280;70568;51.378;-1.342;2024-03-17T07:08:18;99980.64;;;6.44;46.96
63339;BME280;70568;51.378;-1.342;2024-03-17T07:10:55;99968.08;;;8.89;43.46
63339;BME280;70568;51.378;-1.342;2024-03-17T07:13:21;99969.30;;;9.07;41.40
63339;BME280;70568;51.378;-1.342;2024-03-17T07:15:48;99967.68;;;8.55;41.40
63339;BME280;70568;51.378;-1.342;2024-03-17T07:18:14;99966.66;;;6.15;43.98
63339;BME280;70568;51.378;-1.342;2024-03-17T07:20:41;99966.69;;;7.84;43.88
63339;BME280;70568;51.378;-1.342;2024-03-17T07:23:08;99963.57;;;6.62;41.96
63339;BME280;70568;51.378;-1.342;2024-03-17T07:25:35;99966.49;;;8.09;41.96
63339;BME280;70568;51.378;-1.342;2024-03-17T07:28:02;99969.43;;;6.82;44.41
63339;BME280;70568;51.378;-1.342;2024-03-17T07:30:28;99965.39;;;7.56;43.38
63339;BME280;70568;51.378;-1.342;2024-03-17T07:32:55;99965.88;;;8.76;42.40
63339;BME280;70568;51.378;-1.342;2024-03-17T07:35:21;99967.09;;;7.62;43.13
63339;BME280;70568;51.378;-1.342;2024-03-17T07:37:48;99961.72;;;6.39;43.19
63339;BME280;70568;51.378;-1.342;2024-03-17T07:40:15;99956.68;;;8.02;42.11
63339;BME280;70568;51.378;-1.342;2024-03-17T07:42:41;99954.65;;;9.45;41.32
63339;BME280;70568;51.378;-1.342;2024-03-17T07:45:08;99952.36;;;8.03;40.65
63339;BME280;70568;51.378;-1.342;2024-03-17T07:47:35;99954.52;;;7.19;42.19
63339;BME280;70568;51.378;-1.342;2024-03-17T07:50:02;99953.73;;;8.26;41.06
63339;BME280;70568;51.378;-1.342;2024-03-17T07:52:28;99955.61;;;8.23;40.85
63339;BME280;70568;51.378;-1.342;2024-03-17T07:54:55;99953.12;;;8.20;40.47
63339;BME280;70568;51.378;-1.342;2024-03-17T07:57:22;99949.09;;;8.35;40.28
63339;BME280;70568;51.378;-1.342;2024-03-17T07:59:49;99948.51;;;7.87;41.33
63339;BME280;70568;51.378;-1.342;2024-03-17T08:02:16;99951.51;;;7.89;41.28
63339;BME280;70568;51.378;-1.342;2024-03-17T08:04:42;99950.84;;;7.81;41.29
63339;BME280;70568;51.378;-1.342;2024-03-17T08:07:09;99945.83;;;9.70;39.47
63339;BME280;70568;51.378;-1.342;2024-03-17T08:09:35;99943.23;;;11.41;40.23
63339;BME280;70568;51.378;-1.342;2024-03-17T08:12:02;99945.36;;;9.15;40.75
63339;BME280;70568;51.378;-1.342;2024-03-17T08:14:29;99946.45;;;9.35;41.42
63339;BME280;70568;51.378;-1.342;2024-03-17T08:16:55;99944.17;;;7.26;43.34
63339;BME280;70568;51.378;-1.342;2024-03-17T08:19:22;99942.86;;;7.02;43.49
63339;BME280;70568;51.378;-1.342;2024-03-17T08:21:48;99943.85;;;7.77;41.83
63339;BME280;70568;51.378;-1.342;2024-03-17T08:24:15;99942.85;;;10.08;40.74
63339;BME280;70568;51.378;-1.342;2024-03-17T08:26:41;99950.19;;;6.56;43.40
63339;BME280;70568;51.378;-1.342;2024-03-17T08:29:08;99954.08;;;9.71;42.84
63339;BME280;70568;51.378;-1.342;2024-03-17T08:31:35;99954.37;;;7.27;44.62
63339;BME280;70568;51.378;-1.342;2024-03-17T08:34:01;99951.77;;;9.07;41.95
63339;BME280;70568;51.378;-1.342;2024-03-17T08:36:28;99953.92;;;7.95;42.39
63339;BME280;70568;51.378;-1.342;2024-03-17T08:38:54;99953.59;;;8.35;41.56
63339;BME280;70568;51.378;-1.342;2024-03-17T08:41:21;99958.92;;;7.44;42.86
63339;BME280;70568;51.378;-1.342;2024-03-17T08:43:47;99958.35;;;7.12;44.80
63339;BME280;70568;51.378;-1.342;2024-03-17T08:46:14;99953.87;;;8.91;42.88
63339;BME280;70568;51.378;-1.342;2024-03-17T08:48:41;99947.52;;;7.80;43.52
63339;BME280;70568;51.378;-1.342;2024-03-17T08:51:08;99942.79;;;8.75;42.74
63339;BME280;70568;51.378;-1.342;2024-03-17T08:53:35;99937.93;;;6.78;44.41
63339;BME280;70568;51.378;-1.342;2024-03-17T08:56:03;99931.57;;;8.21;43.61
63339;BME280;70568;51.378;-1.342;2024-03-17T08:58:29;99923.46;;;10.37;41.51
63339;BME280;70568;51.378;-1.342;2024-03-17T09:00:56;99914.00;;;7.07;43.69
63339;BME280;70568;51.378;-1.342;2024-03-17T09:03:22;99911.41;;;8.41;41.75
63339;BME280;70568;51.378;-1.342;2024-03-17T09:05:49;99909.79;;;7.26;42.79
63339;BME280;70568;51.378;-1.342;2024-03-17T09:08:18;99910.10;;;8.01;41.31
63339;BME280;70568;51.378;-1.342;2024-03-17T09:10:44;99916.18;;;9.88;42.26
63339;BME280;70568;51.378;-1.342;2024-03-17T09:13:14;99922.91;;;8.97;41.63
63339;BME280;70568;51.378;-1.342;2024-03-17T09:15:41;99927.71;;;8.65;41.18
63339;BME280;70568;51.378;-1.342;2024-03-17T09:18:07;99924.09;;;6.65;43.88
63339;BME280;70568;51.378;-1.342;2024-03-17T09:20:34;99925.69;;;8.74;42.90
63339;BME280;70568;51.378;-1.342;2024-03-17T09:23:00;99929.29;;;9.56;42.31
63339;BME280;70568;51.378;-1.342;2024-03-17T09:25:26;99930.26;;;9.77;41.77
63339;BME280;70568;51.378;-1.342;2024-03-17T09:27:53;99930.29;;;9.42;42.24
63339;BME280;70568;51.378;-1.342;2024-03-17T09:30:19;99934.53;;;8.48;43.85
63339;BME280;70568;51.378;-1.342;2024-03-17T09:32:46;99932.50;;;8.74;43.18
63339;BME280;70568;51.378;-1.342;2024-03-17T09:35:14;99932.00;;;9.04;44.12
63339;BME280;70568;51.378;-1.342;2024-03-17T09:37:41;99928.52;;;9.40;42.05
63339;BME280;70568;51.378;-1.342;2024-03-17T09:40:13;99935.77;;;9.24;43.06
63339;BME280;70568;51.378;-1.342;2024-03-17T09:42:41;99936.95;;;9.46;42.79
63339;BME280;70568;51.378;-1.342;2024-03-17T09:45:09;99943.87;;;9.62;43.78
63339;BME280;70568;51.378;-1.342;2024-03-17T09:47:36;99943.78;;;9.50;44.19
63339;BME280;70568;51.378;-1.342;2024-03-17T09:50:04;99947.76;;;7.55;47.11
63339;BME280;70568;51.378;-1.342;2024-03-17T09:52:33;99938.57;;;9.13;45.24
63339;BME280;70568;51.378;-1.342;2024-03-17T09:55:06;99937.51;;;7.43;46.14
63339;BME280;70568;51.378;-1.342;2024-03-17T09:57:35;99933.08;;;8.24;46.23
63339;BME280;70568;51.378;-1.342;2024-03-17T10:00:04;99931.47;;;7.54;46.91
63339;BME280;70568;51.378;-1.342;2024-03-17T10:02:42;99930.32;;;8.30;46.49
63339;BME280;70568;51.378;-1.342;2024-03-17T10:05:18;99926.58;;;7.32;46.69
63339;BME280;70568;51.378;-1.342;2024-03-17T10:07:44;99929.87;;;9.62;45.93
63339;BME280;70568;51.378;-1.342;2024-03-17T10:10:13;99926.63;;;7.97;46.03
63339;BME280;70568;51.378;-1.342;2024-03-17T10:12:40;99923.79;;;7.26;47.45
63339;BME280;70568;51.378;-1.342;2024-03-17T10:15:11;99920.31;;;6.82;47.89
63339;BME280;70568;51.378;-1.342;2024-03-17T10:17:38;99916.79;;;10.18;46.71
63339;BME280;70568;51.378;-1.342;2024-03-17T10:20:15;99918.56;;;8.03;48.70
63339;BME280;70568;51.378;-1.342;2024-03-17T10:22:59;99920.44;;;8.90;46.89
63339;BME280;70568;51.378;-1.342;2024-03-17T10:25:27;99926.38;;;8.17;48.90
63339;BME280;70568;51.378;-1.342;2024-03-17T10:27:54;99926.20;;;7.91;48.65
63339;BME280;70568;51.378;-1.342;2024-03-17T10:30:22;99935.27;;;9.05;46.78
63339;BME280;70568;51.378;-1.342;2024-03-17T10:32:52;99939.35;;;8.19;44.90
63339;BME280;70568;51.378;-1.342;2024-03-17T10:35:28;99943.93;;;6.47;46.67
63339;BME280;70568;51.378;-1.342;2024-03-17T10:37:57;99947.21;;;10.51;44.40
63339;BME280;70568;51.378;-1.342;2024-03-17T10:40:25;99944.56;;;7.93;46.26
63339;BME280;70568;51.378;-1.342;2024-03-17T10:42:52;99946.57;;;8.44;46.57
63339;BME280;70568;51.378;-1.342;2024-03-17T10:45:20;99947.31;;;9.30;47.90
63339;BME280;70568;51.378;-1.342;2024-03-17T10:47:48;99948.26;;;8.13;47.56
63339;BME280;70568;51.378;-1.342;2024-03-17T10:50:17;99946.19;;;8.08;47.01
63339;BME280;70568;51.378;-1.342;2024-03-17T10:52:45;99943.91;;;9.96;45.47
63339;BME280;70568;51.378;-1.342;2024-03-17T10:55:20;99946.53;;;8.87;45.73
63339;BME280;70568;51.378;-1.342;2024-03-17T10:57:47;99946.02;;;9.24;45.64
63339;BME280;70568;51.378;-1.342;2024-03-17T11:00:17;99947.41;;;8.50;44.93
63339;BME280;70568;51.378;-1.342;2024-03-17T11:02:45;99944.31;;;8.13;46.02
63339;BME280;70568;51.378;-1.342;2024-03-17T11:05:16;99945.84;;;8.69;44.56
63339;BME280;70568;51.378;-1.342;2024-03-17T11:07:44;99940.28;;;8.42;44.75
63339;BME280;70568;51.378;-1.342;2024-03-17T11:10:15;99938.60;;;8.90;46.15
63339;BME280;70568;51.378;-1.342;2024-03-17T11:12:44;99939.12;;;8.83;45.59
63339;BME280;70568;51.378;-1.342;2024-03-17T11:15:51;99940.16;;;8.77;45.27
63339;BME280;70568;51.378;-1.342;2024-03-17T11:18:29;99939.81;;;7.80;45.17
63339;BME280;70568;51.378;-1.342;2024-03-17T11:20:58;99940.93;;;9.24;44.48
63339;BME280;70568;51.378;-1.342;2024-03-17T11:23:27;99935.10;;;9.66;42.39
63339;BME280;70568;51.378;-1.342;2024-03-17T11:25:55;99935.21;;;8.84;43.24
63339;BME280;70568;51.378;-1.342;2024-03-17T11:28:45;99939.02;;;9.00;44.89
63339;BME280;70568;51.378;-1.342;2024-03-17T11:31:44;99939.74;;;10.10;44.14
63339;BME280;70568;51.378;-1.342;2024-03-17T11:34:43;99940.84;;;9.57;42.02
63339;BME280;70568;51.378;-1.342;2024-03-17T11:37:40;99939.28;;;8.93;42.49
63339;BME280;70568;51.378;-1.342;2024-03-17T11:40:24;99936.31;;;9.86;42.35
63339;BME280;70568;51.378;-1.342;2024-03-17T11:43:01;99940.71;;;10.63;43.46
63339;BME280;70568;51.378;-1.342;2024-03-17T11:45:28;99942.99;;;9.67;43.72
63339;BME280;70568;51.378;-1.342;2024-03-17T11:47:54;99937.92;;;10.22;42.51
63339;BME280;70568;51.378;-1.342;2024-03-17T11:50:22;99939.79;;;9.69;42.63
63339;BME280;70568;51.378;-1.342;2024-03-17T11:52:57;99938.85;;;10.39;42.65
63339;BME280;70568;51.378;-1.342;2024-03-17T11:55:24;99936.39;;;10.58;41.81
63339;BME280;70568;51.378;-1.342;2024-03-17T11:57:55;99934.19;;;9.60;42.92
63339;BME280;70568;51.378;-1.342;2024-03-17T12:00:23;99931.42;;;9.40;41.65
63339;BME280;70568;51.378;-1.342;2024-03-17T12:02:51;99927.88;;;10.30;41.33
63339;BME280;70568;51.378;-1.342;2024-03-17T12:05:18;99928.35;;;10.26;43.05
63339;BME280;70568;51.378;-1.342;2024-03-17T12:07:46;99924.15;;;9.97;41.61
63339;BME280;70568;51.378;-1.342;2024-03-17T12:10:13;99926.58;;;10.57;41.20
63339;BME280;70568;51.378;-1.342;2024-03-17T12:12:40;99928.07;;;11.56;41.53
63339;BME280;70568;51.378;-1.342;2024-03-17T12:15:17;99928.36;;;11.07;42.89
63339;BME280;70568;51.378;-1.342;2024-03-17T12:17:44;99929.23;;;8.38;44.69
63339;BME280;70568;51.378;-1.342;2024-03-17T12:20:17;99926.73;;;8.22;43.84
63339;BME280;70568;51.378;-1.342;2024-03-17T12:22:45;99930.11;;;8.04;46.14
63339;BME280;70568;51.378;-1.342;2024-03-17T12:25:16;99926.59;;;8.33;45.33
63339;BME280;70568;51.378;-1.342;2024-03-17T12:27:45;99927.55;;;9.03;44.21
63339;BME280;70568;51.378;-1.342;2024-03-17T12:30:13;99926.39;;;9.42;43.81
63339;BME280;70568;51.378;-1.342;2024-03-17T12:32:40;99922.58;;;10.05;44.71
63339;BME280;70568;51.378;-1.342;2024-03-17T12:35:13;99928.54;;;8.21;46.15
63339;BME280;70568;51.378;-1.342;2024-03-17T12:37:43;99932.26;;;7.42;46.90
63339;BME280;70568;51.378;-1.342;2024-03-17T12:40:19;99931.72;;;7.63;48.50
63339;BME280;70568;51.378;-1.342;2024-03-17T12:42:48;99928.74;;;7.85;48.44
63339;BME280;70568;51.378;-1.342;2024-03-17T12:45:19;99922.42;;;9.36;46.20
63339;BME280;70568;51.378;-1.342;2024-03-17T12:47:47;99921.69;;;9.44;43.86
63339;BME280;70568;51.378;-1.342;2024-03-17T12:50:15;99931.22;;;8.34;47.27
63339;BME280;70568;51.378;-1.342;2024-03-17T12:52:51;99931.28;;;8.09;47.13
63339;BME280;70568;51.378;-1.342;2024-03-17T12:55:23;99922.55;;;8.77;46.16
63339;BME280;70568;51.378;-1.342;2024-03-17T12:57:52;99924.89;;;8.53;46.50